createdAt,value
2023-01-17T00:02:05.881Z,5.91
2023-01-17T00:04:51.390Z,6.00
2023-01-17T00:07:38.248Z,6.03
2023-01-17T00:10:08.706Z,5.84
2023-01-17T00:12:38.139Z,5.79
2023-01-17T00:15:07.845Z,5.89
2023-01-17T00:17:35.581Z,5.97
2023-01-17T00:20:20.651Z,6.19
2023-01-17T00:23:06.026Z,6.06
2023-01-17T00:25:56.022Z,6.20
2023-01-17T00:28:24.743Z,6.24
2023-01-17T00:30:51.474Z,6.18
2023-01-17T00:33:18.646Z,5.92
2023-01-17T00:35:45.624Z,6.02
2023-01-17T00:38:13.822Z,5.97
2023-01-17T00:40:42.530Z,5.94
2023-01-17T00:43:29.453Z,6.12
2023-01-17T00:46:16.315Z,6.24
2023-01-17T00:49:01.855Z,5.88
2023-01-17T00:51:49.254Z,5.93
2023-01-17T00:54:35.239Z,6.15
2023-01-17T00:57:21.154Z,5.92
2023-01-17T01:00:06.664Z,6.10
2023-01-17T01:02:53.871Z,6.02
2023-01-17T01:05:39.044Z,6.05
2023-01-17T01:08:34.906Z,6.32
2023-01-17T01:11:23.982Z,6.01
2023-01-17T01:14:09.418Z,5.99
2023-01-17T01:16:54.774Z,6.09
2023-01-17T01:19:41.362Z,6.11
2023-01-17T01:22:26.923Z,6.03
2023-01-17T01:25:12.118Z,6.16
2023-01-17T01:27:57.646Z,6.23
2023-01-17T01:30:43.094Z,6.10
2023-01-17T01:33:19.166Z,6.08
2023-01-17T01:35:49.661Z,5.89
2023-01-17T01:38:17.870Z,5.95
2023-01-17T01:40:47.766Z,6.16
2023-01-17T01:43:18.016Z,6.13
2023-01-17T01:45:51.457Z,6.42
2023-01-17T01:48:36.667Z,6.43
2023-01-17T01:51:10.301Z,6.61
2023-01-17T01:53:41.796Z,6.55
2023-01-17T01:56:13.658Z,6.63
2023-01-17T01:58:42.892Z,6.72
2023-01-17T02:01:11.363Z,6.73
2023-01-17T02:03:42.028Z,6.64
2023-01-17T02:06:29.956Z,6.58
2023-01-17T02:09:02.806Z,6.34
2023-01-17T02:11:31.314Z,6.47
2023-01-17T02:13:59.336Z,6.58
2023-01-17T02:16:45.074Z,6.60
2023-01-17T02:19:41.708Z,6.79
2023-01-17T02:22:35.211Z,6.65
2023-01-17T02:25:20.830Z,6.76
2023-01-17T02:28:06.028Z,6.66
2023-01-17T02:30:38.347Z,6.58
2023-01-17T02:33:21.832Z,6.55
2023-01-17T02:35:57.875Z,6.68
2023-01-17T02:38:35.040Z,6.74
2023-01-17T02:41:07.848Z,6.80
2023-01-17T02:43:38.343Z,6.66
2023-01-17T02:46:09.641Z,6.66
2023-01-17T02:48:38.257Z,6.82
2023-01-17T02:51:39.275Z,6.75
2023-01-17T02:54:36.762Z,6.83
2023-01-17T02:57:19.361Z,6.87
2023-01-17T02:59:55.745Z,6.92
2023-01-17T03:02:33.374Z,6.85
2023-01-17T03:05:07.677Z,6.82
2023-01-17T03:07:37.813Z,6.83
2023-01-17T03:10:07.500Z,6.82
2023-01-17T03:12:38.672Z,6.79
2023-01-17T03:15:11.173Z,6.85
2023-01-17T03:17:42.395Z,6.82
2023-01-17T03:20:12.387Z,6.83
2023-01-17T03:22:40.128Z,6.78
2023-01-17T03:25:09.496Z,6.87
2023-01-17T03:27:37.337Z,6.88
2023-01-17T03:30:05.883Z,6.89
2023-01-17T03:32:33.686Z,6.86
2023-01-17T03:35:02.942Z,6.95
2023-01-17T03:37:30.736Z,6.73
2023-01-17T03:39:58.566Z,6.83
2023-01-17T03:42:26.411Z,6.83
2023-01-17T03:44:54.125Z,6.97
2023-01-17T03:47:21.925Z,7.02
2023-01-17T03:49:49.701Z,7.03
2023-01-17T03:52:18.979Z,7.01
2023-01-17T03:54:46.676Z,7.09
2023-01-17T03:57:14.422Z,7.10
2023-01-17T03:59:42.142Z,7.10
2023-01-17T04:02:09.948Z,7.13
2023-01-17T04:04:37.826Z,7.14
2023-01-17T04:07:05.808Z,7.11
2023-01-17T04:09:35.443Z,7.05
2023-01-17T04:12:03.678Z,6.97
2023-01-17T04:14:31.511Z,7.00
2023-01-17T04:16:59.926Z,6.98
2023-01-17T04:19:27.764Z,7.09
2023-01-17T04:21:55.596Z,6.98
2023-01-17T04:24:23.345Z,6.80
2023-01-17T04:26:52.459Z,6.87
2023-01-17T04:29:20.273Z,6.79
2023-01-17T04:31:48.751Z,6.81
2023-01-17T04:34:16.654Z,6.84
2023-01-17T04:36:44.524Z,6.92
2023-01-17T04:39:12.254Z,6.85
2023-01-17T04:41:40.120Z,6.93
2023-01-17T04:44:09.255Z,7.01
2023-01-17T04:46:37.110Z,6.96
2023-01-17T04:49:04.839Z,6.82
2023-01-17T04:51:32.590Z,6.69
2023-01-17T04:54:00.374Z,6.87
2023-01-17T04:56:28.180Z,7.10
2023-01-17T04:58:57.826Z,6.85
2023-01-17T05:01:27.125Z,6.90
2023-01-17T05:03:55.043Z,6.79
2023-01-17T05:06:22.808Z,6.60
2023-01-17T05:08:50.497Z,6.69
2023-01-17T05:11:18.233Z,6.27
2023-01-17T05:13:45.946Z,5.87
2023-01-17T05:16:13.738Z,5.61
2023-01-17T05:18:42.886Z,5.65
2023-01-17T05:21:10.638Z,5.58
2023-01-17T05:23:38.538Z,5.56
2023-01-17T05:26:06.605Z,5.60
2023-01-17T05:28:34.392Z,5.93
2023-01-17T05:31:02.240Z,5.48
2023-01-17T05:33:30.136Z,5.68
2023-01-17T05:35:59.340Z,6.28
2023-01-17T05:38:27.111Z,6.25
2023-01-17T05:40:54.870Z,6.07
2023-01-17T05:43:22.808Z,5.91
2023-01-17T05:45:50.715Z,5.96
2023-01-17T05:48:18.512Z,5.85
2023-01-17T05:50:46.234Z,5.91
2023-01-17T05:53:17.270Z,6.02
2023-01-17T05:55:45.131Z,6.02
2023-01-17T05:58:16.347Z,5.58
2023-01-17T06:00:44.442Z,5.40
2023-01-17T06:03:12.895Z,5.36
2023-01-17T06:05:40.873Z,5.61
2023-01-17T06:08:08.916Z,5.68
2023-01-17T06:10:38.094Z,5.71
2023-01-17T06:13:07.733Z,5.90
2023-01-17T06:15:36.735Z,6.01
2023-01-17T06:18:08.746Z,6.03
2023-01-17T06:20:36.921Z,5.83
2023-01-17T06:23:05.895Z,5.79
2023-01-17T06:25:39.519Z,5.75
2023-01-17T06:28:07.854Z,5.64
2023-01-17T06:30:35.754Z,5.62
2023-01-17T06:33:04.016Z,5.58
2023-01-17T06:35:32.266Z,5.66
2023-01-17T06:38:00.670Z,5.75
2023-01-17T06:40:29.749Z,5.86
2023-01-17T06:43:02.499Z,5.92
2023-01-17T06:45:30.729Z,5.96
2023-01-17T06:47:59.245Z,5.93
2023-01-17T06:50:27.279Z,5.94
2023-01-17T06:52:59.583Z,6.08
2023-01-17T06:55:28.855Z,6.10
2023-01-17T06:57:57.040Z,6.13
2023-01-17T07:00:26.823Z,6.01
2023-01-17T07:02:54.853Z,5.93
2023-01-17T07:05:22.866Z,5.89
2023-01-17T07:07:50.579Z,5.90
2023-01-17T07:10:18.495Z,5.82
2023-01-17T07:12:46.593Z,5.77
2023-01-17T07:15:14.379Z,5.71
2023-01-17T07:17:43.507Z,5.82
2023-01-17T07:20:12.033Z,5.69
2023-01-17T07:22:39.759Z,5.69
2023-01-17T07:25:08.513Z,5.65
2023-01-17T07:27:36.358Z,5.62
2023-01-17T07:30:04.444Z,5.55
2023-01-17T07:32:32.246Z,5.67
2023-01-17T07:35:01.311Z,6.01
2023-01-17T07:37:29.074Z,6.16
2023-01-17T07:39:56.951Z,6.17
2023-01-17T07:42:24.907Z,6.03
2023-01-17T07:44:52.662Z,6.10
2023-01-17T07:47:20.927Z,5.66
2023-01-17T07:49:48.706Z,5.48
2023-01-17T07:52:18.336Z,5.65
2023-01-17T07:54:46.320Z,5.59
2023-01-17T07:57:14.077Z,5.79
2023-01-17T07:59:41.817Z,5.87
2023-01-17T08:02:17.580Z,6.02
2023-01-17T08:04:45.803Z,6.01
2023-01-17T08:07:14.402Z,6.03
2023-01-17T08:09:44.396Z,6.01
2023-01-17T08:12:12.148Z,5.98
2023-01-17T08:14:39.851Z,6.04
2023-01-17T08:17:08.111Z,6.15
2023-01-17T08:19:35.873Z,6.07
2023-01-17T08:22:03.645Z,6.22
2023-01-17T08:24:31.350Z,6.25
2023-01-17T08:27:00.484Z,6.30
2023-01-17T08:29:29.295Z,6.30
2023-01-17T08:31:57.189Z,6.16
2023-01-17T08:34:25.732Z,6.17
2023-01-17T08:36:53.975Z,6.02
2023-01-17T08:39:21.744Z,5.98
2023-01-17T08:41:49.499Z,6.09
2023-01-17T08:44:19.958Z,6.12
2023-01-17T08:46:47.789Z,6.20
2023-01-17T08:49:15.530Z,6.29
2023-01-17T08:51:43.340Z,6.31
2023-01-17T08:54:13.246Z,6.44
2023-01-17T08:56:42.774Z,6.53
2023-01-17T08:59:11.688Z,6.77
2023-01-17T09:01:41.842Z,6.56
2023-01-17T09:04:10.107Z,6.96
2023-01-17T09:06:38.465Z,6.94
2023-01-17T09:09:07.453Z,6.98
2023-01-17T09:11:35.874Z,7.07
2023-01-17T09:14:03.708Z,6.89
2023-01-17T09:16:31.987Z,6.81
2023-01-17T09:19:01.500Z,6.75
2023-01-17T09:21:29.357Z,6.66
2023-01-17T09:23:57.161Z,6.83
2023-01-17T09:26:27.095Z,6.85
2023-01-17T09:28:55.620Z,6.88
2023-01-17T09:31:24.620Z,7.01
2023-01-17T09:33:53.193Z,7.14
2023-01-17T09:36:23.899Z,7.19
2023-01-17T09:38:56.417Z,7.13
2023-01-17T09:41:27.919Z,7.26
2023-01-17T09:44:01.441Z,7.18
2023-01-17T09:46:30.674Z,7.25
2023-01-17T09:49:04.603Z,7.39
2023-01-17T09:51:33.939Z,7.56
2023-01-17T09:54:02.464Z,7.54
2023-01-17T09:56:32.929Z,7.89
2023-01-17T09:59:32.162Z,7.88
2023-01-17T10:02:16.208Z,7.94
2023-01-17T10:04:58.542Z,7.78
2023-01-17T10:07:39.279Z,7.58
2023-01-17T10:10:19.386Z,7.49
2023-01-17T10:12:56.526Z,7.91
2023-01-17T10:15:37.733Z,8.04
2023-01-17T10:18:29.839Z,8.01
2023-01-17T10:21:04.419Z,8.19
2023-01-17T10:24:04.678Z,8.15
2023-01-17T10:26:35.085Z,8.17
2023-01-17T10:29:10.538Z,8.31
2023-01-17T10:31:44.668Z,8.51
2023-01-17T10:34:16.731Z,8.89
2023-01-17T10:36:49.671Z,8.87
2023-01-17T10:39:22.433Z,9.00
2023-01-17T10:41:56.277Z,8.96
2023-01-17T10:44:31.393Z,9.00
2023-01-17T10:47:08.104Z,9.03
2023-01-17T10:49:38.750Z,8.74
2023-01-17T10:52:16.640Z,8.53
2023-01-17T10:54:54.698Z,8.34
2023-01-17T10:57:24.841Z,8.57
2023-01-17T10:59:53.837Z,8.75
2023-01-17T11:02:25.787Z,8.83
2023-01-17T11:04:55.883Z,8.71
2023-01-17T11:07:26.035Z,8.66
2023-01-17T11:09:57.037Z,8.68
2023-01-17T11:12:30.004Z,8.71
2023-01-17T11:15:22.766Z,8.52
2023-01-17T11:17:53.301Z,8.49
2023-01-17T11:20:28.983Z,8.57
2023-01-17T11:23:07.989Z,8.54
2023-01-17T11:25:37.354Z,8.51
2023-01-17T11:28:08.278Z,8.43
2023-01-17T11:30:36.036Z,8.53
2023-01-17T11:33:08.855Z,8.51
2023-01-17T11:35:38.701Z,8.53
2023-01-17T11:38:13.162Z,8.25
2023-01-17T11:40:44.098Z,8.47
2023-01-17T11:43:25.604Z,8.73
2023-01-17T11:46:05.402Z,8.93
2023-01-17T11:48:38.650Z,9.05
2023-01-17T11:51:19.319Z,9.16
2023-01-17T11:53:48.322Z,9.50
2023-01-17T11:56:25.546Z,9.61
2023-01-17T11:58:54.189Z,9.40
2023-01-17T12:01:38.337Z,9.11
2023-01-17T12:04:25.162Z,9.01
2023-01-17T12:07:09.426Z,9.04
2023-01-17T12:09:43.245Z,8.61
2023-01-17T12:12:38.587Z,8.19
2023-01-17T12:15:19.251Z,8.75
2023-01-17T12:18:09.824Z,9.21
2023-01-17T12:20:49.168Z,9.57
2023-01-17T12:23:35.458Z,9.62
2023-01-17T12:26:19.581Z,9.71
2023-01-17T12:29:16.046Z,9.56
2023-01-17T12:31:51.009Z,9.46
2023-01-17T12:34:26.085Z,9.44
2023-01-17T12:36:58.154Z,9.52
2023-01-17T12:39:40.460Z,9.72
2023-01-17T12:42:14.503Z,10.12
2023-01-17T12:44:52.558Z,10.19
2023-01-17T12:47:22.150Z,10.22
2023-01-17T12:50:03.251Z,9.97
2023-01-17T12:52:46.288Z,9.92
2023-01-17T12:55:20.224Z,10.12
2023-01-17T12:57:57.036Z,9.41
2023-01-17T13:00:29.797Z,9.63
2023-01-17T13:03:06.855Z,9.76
2023-01-17T13:05:41.713Z,9.78
2023-01-17T13:08:20.818Z,9.98
2023-01-17T13:10:55.654Z,9.94
2023-01-17T13:13:25.712Z,9.67
2023-01-17T13:15:58.884Z,9.52
2023-01-17T13:18:29.858Z,9.57
2023-01-17T13:21:08.642Z,9.79
2023-01-17T13:23:59.618Z,9.40
2023-01-17T13:26:39.278Z,9.35
2023-01-17T13:29:17.944Z,9.68
2023-01-17T13:31:50.584Z,9.41
2023-01-17T13:34:32.604Z,9.31
2023-01-17T13:37:28.852Z,9.75
2023-01-17T13:40:14.820Z,9.79
2023-01-17T13:42:55.019Z,9.44
2023-01-17T13:45:25.734Z,9.57
2023-01-17T13:48:10.655Z,9.83
2023-01-17T13:50:50.503Z,9.87
2023-01-17T13:53:48.750Z,9.81
2023-01-17T13:56:26.106Z,9.62
2023-01-17T13:59:27.884Z,9.64
2023-01-17T14:01:56.742Z,9.59
2023-01-17T14:04:48.132Z,9.43
2023-01-17T14:07:26.519Z,9.20
2023-01-17T14:09:55.006Z,9.31
2023-01-17T14:12:33.610Z,9.15
2023-01-17T14:15:02.801Z,8.92
2023-01-17T14:17:59.241Z,8.80
2023-01-17T14:20:55.368Z,8.70
2023-01-17T14:23:41.549Z,8.76
2023-01-17T14:26:23.407Z,8.79
2023-01-17T14:28:52.830Z,8.66
2023-01-17T14:31:24.186Z,8.35
2023-01-17T14:33:52.224Z,8.21
2023-01-17T14:36:34.573Z,8.34
2023-01-17T14:39:02.347Z,8.43
2023-01-17T14:41:30.845Z,8.28
2023-01-17T14:44:01.002Z,8.00
2023-01-17T14:46:31.030Z,7.98
2023-01-17T14:49:04.030Z,8.11
2023-01-17T14:51:35.099Z,7.89
2023-01-17T14:54:05.472Z,7.87
2023-01-17T14:56:34.205Z,7.95
2023-01-17T14:59:06.677Z,7.98
2023-01-17T15:01:36.248Z,7.67
2023-01-17T15:04:04.527Z,7.76
2023-01-17T15:06:39.235Z,7.30
2023-01-17T15:09:11.417Z,7.17
2023-01-17T15:11:40.342Z,7.19
2023-01-17T15:14:08.893Z,7.49
2023-01-17T15:16:38.889Z,7.08
2023-01-17T15:19:12.332Z,7.00
2023-01-17T15:21:43.677Z,7.32
2023-01-17T15:24:19.998Z,7.35
2023-01-17T15:26:48.676Z,7.41
2023-01-17T15:29:24.844Z,7.22
2023-01-17T15:31:55.035Z,7.22
2023-01-17T15:34:30.749Z,7.49
2023-01-17T15:37:03.436Z,7.14
2023-01-17T15:39:33.114Z,7.08
2023-01-17T15:42:03.880Z,7.32
2023-01-17T15:44:47.550Z,6.92
2023-01-17T15:47:29.371Z,7.21
2023-01-17T15:49:57.395Z,6.91
2023-01-17T15:52:26.932Z,7.13
2023-01-17T15:54:58.884Z,7.07
2023-01-17T15:57:29.492Z,7.01
2023-01-17T16:00:01.189Z,6.93
2023-01-17T16:02:42.902Z,7.29
2023-01-17T16:05:34.373Z,7.24
2023-01-17T16:08:40.535Z,7.01
2023-01-17T16:11:12.481Z,6.85
2023-01-17T16:13:42.278Z,6.84
2023-01-17T16:16:18.886Z,6.99
2023-01-17T16:18:48.090Z,7.03
2023-01-17T16:21:22.071Z,6.85
2023-01-17T16:23:51.595Z,6.91
2023-01-17T16:26:20.016Z,6.68
2023-01-17T16:28:48.037Z,6.87
2023-01-17T16:31:16.279Z,6.81
2023-01-17T16:33:45.799Z,6.69
2023-01-17T16:36:16.381Z,6.53
2023-01-17T16:38:44.498Z,6.59
2023-01-17T16:41:13.999Z,6.55
2023-01-17T16:43:41.906Z,6.64
2023-01-17T16:46:11.886Z,6.45
2023-01-17T16:48:39.714Z,6.39
2023-01-17T16:51:08.610Z,6.50
2023-01-17T16:53:36.780Z,6.60
2023-01-17T16:56:11.865Z,6.51
2023-01-17T16:58:41.865Z,6.60
2023-01-17T17:01:11.252Z,6.53
2023-01-17T17:03:39.171Z,6.74
2023-01-17T17:06:07.522Z,6.71
2023-01-17T17:08:36.222Z,6.99
2023-01-17T17:11:13.848Z,7.08
2023-01-17T17:13:44.459Z,7.06
2023-01-17T17:16:17.989Z,6.93
2023-01-17T17:18:47.095Z,6.59
2023-01-17T17:21:15.076Z,6.63
2023-01-17T17:23:42.800Z,6.40
2023-01-17T17:26:10.788Z,6.51
2023-01-17T17:28:38.468Z,6.70
2023-01-17T17:31:10.384Z,6.59
2023-01-17T17:33:38.692Z,6.79
2023-01-17T17:36:09.966Z,6.77
2023-01-17T17:38:38.059Z,6.80
2023-01-17T17:41:07.655Z,6.62
2023-01-17T17:43:41.284Z,6.49
2023-01-17T17:46:10.506Z,6.68
2023-01-17T17:48:38.238Z,6.60
2023-01-17T17:51:06.309Z,6.65
2023-01-17T17:53:34.139Z,6.68
2023-01-17T17:56:08.083Z,6.78
2023-01-17T17:58:36.716Z,6.76
2023-01-17T18:01:06.398Z,6.80
2023-01-17T18:03:35.581Z,6.98
2023-01-17T18:06:05.107Z,7.04
2023-01-17T18:08:33.740Z,7.05
2023-01-17T18:11:02.488Z,7.20
2023-01-17T18:13:31.553Z,7.29
2023-01-17T18:16:05.501Z,6.96
2023-01-17T18:18:33.301Z,6.95
2023-01-17T18:21:15.088Z,6.95
2023-01-17T18:23:44.310Z,7.06
2023-01-17T18:26:19.973Z,7.16
2023-01-17T18:28:48.111Z,7.15
2023-01-17T18:31:16.265Z,6.86
2023-01-17T18:33:44.434Z,6.74
2023-01-17T18:36:14.542Z,6.82
2023-01-17T18:38:44.012Z,6.72
2023-01-17T18:41:13.589Z,6.47
2023-01-17T18:43:41.733Z,6.69
2023-01-17T18:46:11.602Z,6.03
2023-01-17T18:48:39.940Z,5.91
2023-01-17T18:51:09.091Z,5.78
2023-01-17T18:53:39.688Z,5.59
2023-01-17T18:56:09.446Z,5.58
2023-01-17T18:58:39.117Z,4.87
2023-01-17T19:01:09.173Z,4.65
2023-01-17T19:03:37.381Z,4.47
2023-01-17T19:06:07.124Z,4.60
2023-01-17T19:08:35.999Z,4.38
2023-01-17T19:11:05.586Z,4.40
2023-01-17T19:13:34.832Z,4.28
2023-01-17T19:16:03.621Z,4.18
2023-01-17T19:18:31.907Z,4.21
2023-01-17T19:21:05.679Z,4.01
2023-01-17T19:23:34.985Z,4.00
2023-01-17T19:26:03.200Z,4.21
2023-01-17T19:28:35.443Z,4.05
2023-01-17T19:31:05.604Z,4.04
2023-01-17T19:33:35.099Z,4.02
2023-01-17T19:36:05.788Z,3.76
2023-01-17T19:38:35.203Z,4.04
2023-01-17T19:41:09.239Z,3.94
2023-01-17T19:43:39.038Z,3.88
2023-01-17T19:46:08.943Z,3.70
2023-01-17T19:48:37.385Z,3.39
2023-01-17T19:51:06.942Z,3.42
2023-01-17T19:53:35.884Z,3.46
2023-01-17T19:56:06.858Z,3.50
2023-01-17T19:58:35.426Z,3.32
2023-01-17T20:01:10.634Z,3.64
2023-01-17T20:03:39.326Z,3.67
2023-01-17T20:06:08.057Z,3.77
2023-01-17T20:08:36.252Z,3.99
2023-01-17T20:11:05.661Z,4.00
2023-01-17T20:13:33.792Z,4.01
2023-01-17T20:16:05.728Z,4.41
2023-01-17T20:18:36.022Z,4.43
2023-01-17T20:21:04.652Z,4.48
2023-01-17T20:23:35.386Z,4.40
2023-01-17T20:26:04.641Z,4.26
2023-01-17T20:28:34.614Z,4.42
2023-01-17T20:31:06.436Z,4.65
2023-01-17T20:33:36.234Z,4.86
2023-01-17T20:36:10.449Z,5.00
2023-01-17T20:38:45.207Z,4.81
2023-01-17T20:41:15.273Z,4.75
2023-01-17T20:43:43.318Z,4.88
2023-01-17T20:46:12.049Z,4.95
2023-01-17T20:48:47.056Z,5.19
2023-01-17T20:51:15.582Z,5.19
2023-01-17T20:53:44.588Z,5.29
2023-01-17T20:56:14.626Z,5.09
2023-01-17T20:58:43.097Z,5.17
2023-01-17T21:01:12.760Z,5.28
2023-01-17T21:03:41.058Z,5.20
2023-01-17T21:06:13.664Z,5.37
2023-01-17T21:08:42.791Z,5.12
2023-01-17T21:11:12.444Z,5.21
2023-01-17T21:13:40.897Z,5.30
2023-01-17T21:16:09.799Z,5.38
2023-01-17T21:18:37.894Z,5.47
2023-01-17T21:21:07.929Z,5.37
2023-01-17T21:23:37.539Z,5.42
2023-01-17T21:26:05.511Z,5.53
2023-01-17T21:28:36.873Z,5.66
2023-01-17T21:31:20.490Z,5.69
2023-01-17T21:33:48.852Z,5.75
2023-01-17T21:36:16.882Z,5.74
2023-01-17T21:38:52.088Z,5.78
2023-01-17T21:41:20.805Z,5.67
2023-01-17T21:43:49.048Z,5.67
2023-01-17T21:46:16.866Z,5.61
2023-01-17T21:48:45.419Z,5.54
2023-01-17T21:51:13.165Z,5.54
2023-01-17T21:53:41.079Z,5.67
2023-01-17T21:56:32.113Z,5.78
2023-01-17T21:59:00.661Z,5.62
2023-01-17T22:01:31.120Z,5.58
2023-01-17T22:04:01.143Z,5.65
2023-01-17T22:06:30.708Z,5.56
2023-01-17T22:08:59.136Z,5.59
2023-01-17T22:11:30.360Z,5.53
2023-01-17T22:13:59.305Z,5.60
2023-01-17T22:16:27.556Z,5.40
2023-01-17T22:18:55.314Z,5.55
2023-01-17T22:21:24.440Z,5.61
2023-01-17T22:23:54.216Z,5.57
2023-01-17T22:26:24.772Z,5.40
2023-01-17T22:28:54.806Z,5.37
2023-01-17T22:31:24.597Z,5.25
2023-01-17T22:33:54.976Z,5.15
2023-01-17T22:36:23.222Z,5.20
2023-01-17T22:38:51.345Z,5.16
2023-01-17T22:41:20.999Z,5.28
2023-01-17T22:43:50.128Z,4.99
2023-01-17T22:46:21.203Z,4.93
2023-01-17T22:48:49.027Z,5.01
2023-01-17T22:51:18.513Z,5.15
2023-01-17T22:53:48.337Z,5.12
2023-01-17T22:56:19.098Z,5.14
2023-01-17T22:58:48.710Z,5.15
2023-01-17T23:01:18.122Z,5.15
2023-01-17T23:03:52.199Z,5.13
2023-01-17T23:06:21.836Z,5.21
2023-01-17T23:08:51.709Z,5.26
2023-01-17T23:11:40.772Z,5.22
2023-01-17T23:14:10.682Z,5.34
2023-01-17T23:16:57.047Z,5.18
2023-01-17T23:19:27.298Z,5.32
2023-01-17T23:22:15.370Z,5.26
2023-01-17T23:24:44.461Z,5.18
2023-01-17T23:27:31.573Z,5.35
2023-01-17T23:29:59.495Z,5.31
2023-01-17T23:32:27.345Z,5.38
2023-01-17T23:34:56.489Z,5.10
2023-01-17T23:37:49.032Z,5.27
2023-01-17T23:40:17.523Z,5.26
2023-01-17T23:43:02.808Z,5.28
2023-01-17T23:45:30.558Z,5.29
2023-01-17T23:47:58.285Z,5.27
2023-01-17T23:50:27.345Z,5.17
2023-01-17T23:52:55.495Z,5.16
2023-01-17T23:55:23.469Z,5.15
2023-01-17T23:57:51.769Z,5.18
